Карточка аэропорта UNKL

Внимание!
Информация на этой странице в стадии наполнения.
Если вы не увидели какой-то информации, или заметили неточность - пожалуйста сообщите нам!
Спасибо!
Команда RU-STAFF
Название аэропортаЕмельяново
Название аэропорта (англ.)Yemelyanovo
Превышение942 ft. (287.1 m.)
Координаты56°10.386', 92°29.598'
Высота перехода7500ft
Эшелон переходаFL090
Коды ответчика5320-5377
Зона ОрВДКрасноярск РПИ (UNKL)
Данные METARUNKL 280930Z 31005MPS 9999 -SHRA SCT034CB 07/06 Q1004 R29/290055 TEMPO 28011G16MPS -TSRA RMK QFE727
Проноз погоды (TAF)UNKL 280753Z 2809/2909 34003G08MPS 9999 BKN016CB TEMPO 2809/2812 29008G18MPS -TSRA BECMG 2812/2815 29008G16MPS BECMG 2818/2821 22005G12MPS TEMPO 2900/2904 22010G22MPS BECMG 2904/2908 22010G22MPS
NOTAMshow/hide NOTAM
AWOS   TABLE

Информация о ВПП

ВПП Длина ВПП (м.) Покрытие Курс ВПП Частота ILS
293700Асфальтобетон289111.7
113700Асфальтобетон109110.5

Диспетчерские позиции

Позывной Наименование органа УВД Частота
UNKL_APPКрасноярск-Подход127.7
UNKL_GNDКрасноярск-Руление121.9
UNKL_R_APPКрасноярск-Круг122.0
UNKL_TWRКрасноярск-Вышка118.3



Спутниковое изображение